Terminal Aerodrome Forecast
Issued by NWS

Home | Current Version | Previous Version | Graphics & Text | Print | Product List | Glossary On
Versions: 1 2 3 4 5 6 7 8 9 10 11 12 13 14 15 16
000
FTUS43 KBIS 230405 AAA
TAFDIK
TAF AMD
KDIK 230405Z 2304/2324 16010KT P6SM VCTS BKN090CB OVC250
      TEMPO 2304/2307 VRB20G30KT 5SM TSRA BKN070CB OVC100
     FM230700 13007KT P6SM SCT050 BKN200
     FM231500 11013KT P6SM VCTS OVC035CB
     FM231700 12015G23KT P6SM SCT030 BKN040
     FM232200 14014KT P6SM VCTS SCT035CB BKN060=

USA.gov is the U.S. government's official web portal to all federal, state and local government web resources and services.